sensor_id;sensor_type;location;lat;lon;timestamp;P1;durP1;ratioP1;P2;durP2;ratioP2
13250;SDS011;6692;50.710;7.180;2023-02-28T00:00:58;3.10;;;2.80;;
13250;SDS011;6692;50.710;7.180;2023-02-28T00:02:58;3.20;;;2.90;;
13250;SDS011;6692;50.710;7.180;2023-02-28T00:04:59;3.30;;;3.00;;
13250;SDS011;6692;50.710;7.180;2023-02-28T00:07:00;3.30;;;2.93;;
13250;SDS011;6692;50.710;7.180;2023-02-28T00:09:01;2.65;;;2.45;;
13250;SDS011;6692;50.710;7.180;2023-02-28T00:11:02;3.80;;;3.03;;
13250;SDS011;6692;50.710;7.180;2023-02-28T00:13:04;4.30;;;3.20;;
13250;SDS011;6692;50.710;7.180;2023-02-28T00:15:05;4.13;;;3.17;;
13250;SDS011;6692;50.710;7.180;2023-02-28T00:17:06;3.45;;;3.05;;
13250;SDS011;6692;50.710;7.180;2023-02-28T00:19:07;3.27;;;2.97;;
13250;SDS011;6692;50.710;7.180;2023-02-28T00:21:08;3.53;;;3.22;;
13250;SDS011;6692;50.710;7.180;2023-02-28T00:23:09;3.43;;;3.13;;
13250;SDS011;6692;50.710;7.180;2023-02-28T00:25:10;3.37;;;2.87;;
13250;SDS011;6692;50.710;7.180;2023-02-28T00:27:10;3.23;;;2.93;;
13250;SDS011;6692;50.710;7.180;2023-02-28T00:29:11;3.50;;;3.17;;
13250;SDS011;6692;50.710;7.180;2023-02-28T00:31:11;3.03;;;2.77;;
13250;SDS011;6692;50.710;7.180;2023-02-28T00:33:12;3.20;;;2.90;;
13250;SDS011;6692;50.710;7.180;2023-02-28T00:35:13;3.20;;;2.87;;
13250;SDS011;6692;50.710;7.180;2023-02-28T00:37:13;3.80;;;2.93;;
13250;SDS011;6692;50.710;7.180;2023-02-28T00:39:15;3.13;;;2.83;;
13250;SDS011;6692;50.710;7.180;2023-02-28T00:41:15;3.30;;;2.90;;
13250;SDS011;6692;50.710;7.180;2023-02-28T00:43:16;4.33;;;3.33;;
13250;SDS011;6692;50.710;7.180;2023-02-28T00:45:17;3.37;;;3.07;;
13250;SDS011;6692;50.710;7.180;2023-02-28T00:47:17;3.33;;;3.03;;
13250;SDS011;6692;50.710;7.180;2023-02-28T00:49:18;3.67;;;3.37;;
13250;SDS011;6692;50.710;7.180;2023-02-28T00:51:20;2.90;;;2.70;;
13250;SDS011;6692;50.710;7.180;2023-02-28T00:53:21;3.10;;;2.80;;
13250;SDS011;6692;50.710;7.180;2023-02-28T00:55:22;4.40;;;3.40;;
13250;SDS011;6692;50.710;7.180;2023-02-28T00:57:22;5.07;;;3.50;;
13250;SDS011;6692;50.710;7.180;2023-02-28T00:59:23;3.00;;;2.67;;
13250;SDS011;6692;50.710;7.180;2023-02-28T01:01:24;4.10;;;3.70;;
13250;SDS011;6692;50.710;7.180;2023-02-28T01:03:25;4.30;;;3.90;;
13250;SDS011;6692;50.710;7.180;2023-02-28T01:05:26;3.85;;;3.35;;
13250;SDS011;6692;50.710;7.180;2023-02-28T01:07:26;3.63;;;3.33;;
13250;SDS011;6692;50.710;7.180;2023-02-28T01:09:28;4.73;;;3.93;;
13250;SDS011;6692;50.710;7.180;2023-02-28T01:11:29;3.67;;;3.22;;
13250;SDS011;6692;50.710;7.180;2023-02-28T01:13:29;5.23;;;3.30;;
13250;SDS011;6692;50.710;7.180;2023-02-28T01:15:30;3.77;;;3.13;;
13250;SDS011;6692;50.710;7.180;2023-02-28T01:17:30;4.00;;;3.47;;
13250;SDS011;6692;50.710;7.180;2023-02-28T01:19:31;4.30;;;3.90;;
13250;SDS011;6692;50.710;7.180;2023-02-28T01:21:32;4.30;;;3.90;;
13250;SDS011;6692;50.710;7.180;2023-02-28T01:23:32;4.00;;;3.70;;
13250;SDS011;6692;50.710;7.180;2023-02-28T01:25:35;4.30;;;3.90;;
13250;SDS011;6692;50.710;7.180;2023-02-28T01:27:34;5.62;;;4.03;;
13250;SDS011;6692;50.710;7.180;2023-02-28T01:29:35;3.93;;;3.60;;
13250;SDS011;6692;50.710;7.180;2023-02-28T01:31:36;4.20;;;3.63;;
13250;SDS011;6692;50.710;7.180;2023-02-28T01:33:37;4.23;;;3.83;;
13250;SDS011;6692;50.710;7.180;2023-02-28T01:35:37;6.70;;;4.17;;
13250;SDS011;6692;50.710;7.180;2023-02-28T01:37:38;4.90;;;4.00;;
13250;SDS011;6692;50.710;7.180;2023-02-28T01:39:38;4.87;;;3.57;;
13250;SDS011;6692;50.710;7.180;2023-02-28T01:41:39;4.03;;;3.63;;
13250;SDS011;6692;50.710;7.180;2023-02-28T01:43:58;4.77;;;3.67;;
13250;SDS011;6692;50.710;7.180;2023-02-28T01:45:58;4.65;;;4.25;;
13250;SDS011;6692;50.710;7.180;2023-02-28T01:48:01;3.93;;;3.53;;
13250;SDS011;6692;50.710;7.180;2023-02-28T01:50:01;4.07;;;3.47;;
13250;SDS011;6692;50.710;7.180;2023-02-28T01:52:01;3.67;;;3.30;;
13250;SDS011;6692;50.710;7.180;2023-02-28T01:54:03;3.77;;;3.47;;
13250;SDS011;6692;50.710;7.180;2023-02-28T01:56:04;3.77;;;3.30;;
13250;SDS011;6692;50.710;7.180;2023-02-28T01:58:05;3.70;;;3.40;;
13250;SDS011;6692;50.710;7.180;2023-02-28T02:00:09;3.67;;;3.20;;
13250;SDS011;6692;50.710;7.180;2023-02-28T02:02:10;3.78;;;3.15;;
13250;SDS011;6692;50.710;7.180;2023-02-28T02:04:11;3.87;;;3.57;;
13250;SDS011;6692;50.710;7.180;2023-02-28T02:06:12;4.03;;;3.62;;
13250;SDS011;6692;50.710;7.180;2023-02-28T02:08:16;4.00;;;3.60;;
13250;SDS011;6692;50.710;7.180;2023-02-28T02:10:16;4.57;;;3.83;;
13250;SDS011;6692;50.710;7.180;2023-02-28T02:12:24;2.95;;;2.60;;
13250;SDS011;6692;50.710;7.180;2023-02-28T02:14:31;4.55;;;3.45;;
13250;SDS011;6692;50.710;7.180;2023-02-28T02:16:34;4.00;;;3.70;;
13250;SDS011;6692;50.710;7.180;2023-02-28T02:18:48;3.80;;;3.50;;
13250;SDS011;6692;50.710;7.180;2023-02-28T02:20:58;3.47;;;3.17;;
13250;SDS011;6692;50.710;7.180;2023-02-28T02:25:12;3.75;;;3.33;;
13250;SDS011;6692;50.710;7.180;2023-02-28T02:27:17;3.40;;;3.10;;
13250;SDS011;6692;50.710;7.180;2023-02-28T02:31:52;3.37;;;3.08;;
13250;SDS011;6692;50.710;7.180;2023-02-28T02:34:09;3.85;;;3.50;;
13250;SDS011;6692;50.710;7.180;2023-02-28T02:36:19;3.50;;;3.20;;
13250;SDS011;6692;50.710;7.180;2023-02-28T02:38:40;3.70;;;3.40;;
13250;SDS011;6692;50.710;7.180;2023-02-28T02:40:47;3.50;;;3.20;;
13250;SDS011;6692;50.710;7.180;2023-02-28T02:43:01;4.68;;;3.40;;
13250;SDS011;6692;50.710;7.180;2023-02-28T02:45:07;3.70;;;3.40;;
13250;SDS011;6692;50.710;7.180;2023-02-28T02:47:08;4.07;;;3.37;;
13250;SDS011;6692;50.710;7.180;2023-02-28T02:49:09;4.00;;;3.20;;
13250;SDS011;6692;50.710;7.180;2023-02-28T02:51:11;3.65;;;3.35;;
13250;SDS011;6692;50.710;7.180;2023-02-28T02:53:11;4.45;;;3.55;;
13250;SDS011;6692;50.710;7.180;2023-02-28T02:55:12;4.97;;;3.70;;
13250;SDS011;6692;50.710;7.180;2023-02-28T02:57:17;4.35;;;3.53;;
13250;SDS011;6692;50.710;7.180;2023-02-28T02:59:16;4.80;;;3.67;;
13250;SDS011;6692;50.710;7.180;2023-02-28T03:01:18;3.58;;;3.25;;
13250;SDS011;6692;50.710;7.180;2023-02-28T03:03:21;3.92;;;3.53;;
13250;SDS011;6692;50.710;7.180;2023-02-28T03:05:23;4.87;;;4.03;;
13250;SDS011;6692;50.710;7.180;2023-02-28T03:07:25;6.80;;;4.75;;
13250;SDS011;6692;50.710;7.180;2023-02-28T03:09:26;6.22;;;4.20;;
13250;SDS011;6692;50.710;7.180;2023-02-28T03:11:26;4.50;;;3.55;;
13250;SDS011;6692;50.710;7.180;2023-02-28T03:13:34;5.13;;;4.37;;
13250;SDS011;6692;50.710;7.180;2023-02-28T03:15:36;4.72;;;4.25;;
13250;SDS011;6692;50.710;7.180;2023-02-28T03:20:27;4.30;;;3.78;;
13250;SDS011;6692;50.710;7.180;2023-02-28T03:22:14;3.50;;;3.17;;
13250;SDS011;6692;50.710;7.180;2023-02-28T03:24:21;5.00;;;3.37;;
13250;SDS011;6692;50.710;7.180;2023-02-28T03:26:21;2.95;;;2.75;;
13250;SDS011;6692;50.710;7.180;2023-02-28T03:30:36;3.70;;;3.30;;
13250;SDS011;6692;50.710;7.180;2023-02-28T03:32:43;3.58;;;3.28;;
13250;SDS011;6692;50.710;7.180;2023-02-28T03:34:46;3.20;;;2.90;;
13250;SDS011;6692;50.710;7.180;2023-02-28T03:36:44;3.17;;;2.87;;
13250;SDS011;6692;50.710;7.180;2023-02-28T03:38:50;3.95;;;3.47;;
13250;SDS011;6692;50.710;7.180;2023-02-28T03:40:51;3.17;;;2.87;;
13250;SDS011;6692;50.710;7.180;2023-02-28T03:42:51;3.63;;;2.90;;
13250;SDS011;6692;50.710;7.180;2023-02-28T03:44:53;3.80;;;3.40;;
13250;SDS011;6692;50.710;7.180;2023-02-28T03:46:57;3.60;;;3.30;;
13250;SDS011;6692;50.710;7.180;2023-02-28T03:49:00;4.43;;;3.10;;
13250;SDS011;6692;50.710;7.180;2023-02-28T03:50:58;3.27;;;2.97;;
13250;SDS011;6692;50.710;7.180;2023-02-28T03:53:02;3.70;;;3.10;;
13250;SDS011;6692;50.710;7.180;2023-02-28T03:55:03;3.50;;;3.20;;
13250;SDS011;6692;50.710;7.180;2023-02-28T03:57:10;4.67;;;3.27;;
13250;SDS011;6692;50.710;7.180;2023-02-28T03:59:13;3.40;;;3.10;;
13250;SDS011;6692;50.710;7.180;2023-02-28T04:01:16;3.17;;;2.67;;
13250;SDS011;6692;50.710;7.180;2023-02-28T04:03:16;3.90;;;3.40;;
13250;SDS011;6692;50.710;7.180;2023-02-28T04:05:16;3.00;;;2.80;;
13250;SDS011;6692;50.710;7.180;2023-02-28T04:07:17;4.60;;;3.13;;
13250;SDS011;6692;50.710;7.180;2023-02-28T04:09:17;3.67;;;3.17;;
13250;SDS011;6692;50.710;7.180;2023-02-28T04:11:34;4.40;;;3.00;;
13250;SDS011;6692;50.710;7.180;2023-02-28T04:13:34;2.95;;;2.75;;
13250;SDS011;6692;50.710;7.180;2023-02-28T04:15:34;3.07;;;2.73;;
13250;SDS011;6692;50.710;7.180;2023-02-28T04:17:35;3.47;;;2.80;;
13250;SDS011;6692;50.710;7.180;2023-02-28T04:19:36;2.90;;;2.70;;
13250;SDS011;6692;50.710;7.180;2023-02-28T04:21:37;3.03;;;2.73;;
13250;SDS011;6692;50.710;7.180;2023-02-28T04:23:39;3.15;;;2.85;;
13250;SDS011;6692;50.710;7.180;2023-02-28T04:25:40;3.80;;;3.33;;
13250;SDS011;6692;50.710;7.180;2023-02-28T04:27:40;3.17;;;2.87;;
13250;SDS011;6692;50.710;7.180;2023-02-28T04:29:41;3.60;;;2.77;;
13250;SDS011;6692;50.710;7.180;2023-02-28T04:31:41;2.90;;;2.60;;
13250;SDS011;6692;50.710;7.180;2023-02-28T04:33:42;3.23;;;2.83;;
13250;SDS011;6692;50.710;7.180;2023-02-28T04:35:43;2.83;;;2.60;;
13250;SDS011;6692;50.710;7.180;2023-02-28T04:37:43;3.50;;;3.00;;
13250;SDS011;6692;50.710;7.180;2023-02-28T04:39:44;3.40;;;2.97;;
13250;SDS011;6692;50.710;7.180;2023-02-28T04:41:45;4.70;;;3.33;;
13250;SDS011;6692;50.710;7.180;2023-02-28T04:43:45;3.60;;;3.30;;
13250;SDS011;6692;50.710;7.180;2023-02-28T04:45:46;3.17;;;2.87;;
13250;SDS011;6692;50.710;7.180;2023-02-28T04:47:47;3.40;;;3.10;;
13250;SDS011;6692;50.710;7.180;2023-02-28T04:49:48;3.45;;;3.15;;
13250;SDS011;6692;50.710;7.180;2023-02-28T04:51:49;3.97;;;3.50;;
13250;SDS011;6692;50.710;7.180;2023-02-28T04:53:50;3.23;;;2.90;;
13250;SDS011;6692;50.710;7.180;2023-02-28T04:55:51;3.55;;;3.25;;
13250;SDS011;6692;50.710;7.180;2023-02-28T04:57:51;3.00;;;2.80;;
13250;SDS011;6692;50.710;7.180;2023-02-28T04:59:53;3.43;;;3.13;;
13250;SDS011;6692;50.710;7.180;2023-02-28T05:01:53;3.12;;;2.90;;
13250;SDS011;6692;50.710;7.180;2023-02-28T05:03:55;3.23;;;2.70;;
13250;SDS011;6692;50.710;7.180;2023-02-28T05:05:55;3.67;;;3.23;;
13250;SDS011;6692;50.710;7.180;2023-02-28T05:07:57;3.22;;;2.92;;
13250;SDS011;6692;50.710;7.180;2023-02-28T05:09:57;3.05;;;2.75;;
13250;SDS011;6692;50.710;7.180;2023-02-28T05:11:59;3.40;;;3.10;;
13250;SDS011;6692;50.710;7.180;2023-02-28T05:14:01;3.47;;;3.17;;
13250;SDS011;6692;50.710;7.180;2023-02-28T05:16:02;3.30;;;3.00;;
13250;SDS011;6692;50.710;7.180;2023-02-28T05:18:03;3.37;;;3.08;;
13250;SDS011;6692;50.710;7.180;2023-02-28T05:20:03;3.47;;;3.17;;
13250;SDS011;6692;50.710;7.180;2023-02-28T05:22:09;3.95;;;3.40;;
13250;SDS011;6692;50.710;7.180;2023-02-28T05:24:07;4.47;;;3.43;;
13250;SDS011;6692;50.710;7.180;2023-02-28T05:26:08;4.57;;;3.65;;
13250;SDS011;6692;50.710;7.180;2023-02-28T05:28:10;4.10;;;3.70;;
13250;SDS011;6692;50.710;7.180;2023-02-28T05:30:10;4.62;;;3.92;;
13250;SDS011;6692;50.710;7.180;2023-02-28T05:32:12;4.12;;;3.78;;
13250;SDS011;6692;50.710;7.180;2023-02-28T05:34:14;3.58;;;3.28;;
13250;SDS011;6692;50.710;7.180;2023-02-28T05:36:14;4.00;;;3.62;;
13250;SDS011;6692;50.710;7.180;2023-02-28T05:38:15;4.90;;;4.40;;
13250;SDS011;6692;50.710;7.180;2023-02-28T05:40:16;4.90;;;4.40;;
13250;SDS011;6692;50.710;7.180;2023-02-28T05:42:16;4.07;;;3.67;;
13250;SDS011;6692;50.710;7.180;2023-02-28T05:44:17;4.50;;;4.10;;
13250;SDS011;6692;50.710;7.180;2023-02-28T05:46:18;4.50;;;4.10;;
13250;SDS011;6692;50.710;7.180;2023-02-28T05:48:18;4.90;;;3.93;;
13250;SDS011;6692;50.710;7.180;2023-02-28T05:50:19;4.30;;;3.90;;
13250;SDS011;6692;50.710;7.180;2023-02-28T05:52:20;5.20;;;4.20;;
13250;SDS011;6692;50.710;7.180;2023-02-28T05:54:20;4.10;;;3.70;;
13250;SDS011;6692;50.710;7.180;2023-02-28T05:56:21;4.50;;;4.10;;
13250;SDS011;6692;50.710;7.180;2023-02-28T05:58:22;4.90;;;4.40;;
13250;SDS011;6692;50.710;7.180;2023-02-28T06:00:22;4.27;;;3.87;;
13250;SDS011;6692;50.710;7.180;2023-02-28T06:02:23;4.40;;;4.00;;
13250;SDS011;6692;50.710;7.180;2023-02-28T06:04:24;4.83;;;4.20;;
13250;SDS011;6692;50.710;7.180;2023-02-28T06:06:24;4.83;;;4.33;;
13250;SDS011;6692;50.710;7.180;2023-02-28T06:08:25;4.00;;;3.60;;
13250;SDS011;6692;50.710;7.180;2023-02-28T06:10:27;5.13;;;4.60;;
13250;SDS011;6692;50.710;7.180;2023-02-28T06:12:27;4.75;;;4.35;;
13250;SDS011;6692;50.710;7.180;2023-02-28T06:14:28;4.40;;;4.00;;
13250;SDS011;6692;50.710;7.180;2023-02-28T06:16:29;4.60;;;4.20;;
13250;SDS011;6692;50.710;7.180;2023-02-28T06:18:29;4.57;;;4.17;;
13250;SDS011;6692;50.710;7.180;2023-02-28T06:20:30;4.73;;;3.80;;
13250;SDS011;6692;50.710;7.180;2023-02-28T06:22:30;4.33;;;3.97;;
13250;SDS011;6692;50.710;7.180;2023-02-28T06:24:31;4.50;;;4.10;;
13250;SDS011;6692;50.710;7.180;2023-02-28T06:26:32;3.87;;;3.57;;
13250;SDS011;6692;50.710;7.180;2023-02-28T06:28:33;3.92;;;3.53;;
13250;SDS011;6692;50.710;7.180;2023-02-28T06:30:34;4.40;;;4.00;;
13250;SDS011;6692;50.710;7.180;2023-02-28T06:32:34;4.17;;;3.77;;
13250;SDS011;6692;50.710;7.180;2023-02-28T06:34:35;4.10;;;3.80;;
13250;SDS011;6692;50.710;7.180;2023-02-28T06:36:36;3.90;;;3.53;;
13250;SDS011;6692;50.710;7.180;2023-02-28T06:38:37;4.70;;;3.97;;
13250;SDS011;6692;50.710;7.180;2023-02-28T06:40:38;4.72;;;4.32;;
13250;SDS011;6692;50.710;7.180;2023-02-28T06:42:40;5.18;;;4.47;;
13250;SDS011;6692;50.710;7.180;2023-02-28T06:44:40;5.32;;;4.75;;
13250;SDS011;6692;50.710;7.180;2023-02-28T06:46:42;5.27;;;4.77;;
13250;SDS011;6692;50.710;7.180;2023-02-28T06:48:43;5.43;;;4.72;;
13250;SDS011;6692;50.710;7.180;2023-02-28T06:50:43;5.50;;;5.00;;
13250;SDS011;6692;50.710;7.180;2023-02-28T06:52:44;5.77;;;5.17;;
13250;SDS011;6692;50.710;7.180;2023-02-28T06:54:44;6.00;;;5.07;;
13250;SDS011;6692;50.710;7.180;2023-02-28T06:56:45;6.77;;;5.00;;
13250;SDS011;6692;50.710;7.180;2023-02-28T06:58:47;5.53;;;4.80;;
13250;SDS011;6692;50.710;7.180;2023-02-28T07:00:49;6.80;;;5.20;;
13250;SDS011;6692;50.710;7.180;2023-02-28T07:02:48;6.23;;;4.93;;
13250;SDS011;6692;50.710;7.180;2023-02-28T07:04:50;6.20;;;5.30;;
13250;SDS011;6692;50.710;7.180;2023-02-28T07:06:50;5.50;;;5.00;;
13250;SDS011;6692;50.710;7.180;2023-02-28T07:08:51;7.03;;;5.33;;
13250;SDS011;6692;50.710;7.180;2023-02-28T07:10:53;5.60;;;4.90;;
13250;SDS011;6692;50.710;7.180;2023-02-28T07:12:53;5.78;;;5.28;;
13250;SDS011;6692;50.710;7.180;2023-02-28T07:14:54;6.47;;;5.03;;
13250;SDS011;6692;50.710;7.180;2023-02-28T07:16:55;5.63;;;5.00;;
13250;SDS011;6692;50.710;7.180;2023-02-28T07:18:55;6.00;;;5.30;;
13250;SDS011;6692;50.710;7.180;2023-02-28T07:20:56;6.67;;;5.93;;
13250;SDS011;6692;50.710;7.180;2023-02-28T07:22:56;5.80;;;5.20;;
13250;SDS011;6692;50.710;7.180;2023-02-28T07:24:57;5.70;;;5.10;;
13250;SDS011;6692;50.710;7.180;2023-02-28T07:26:58;5.50;;;5.00;;
13250;SDS011;6692;50.710;7.180;2023-02-28T07:28:58;5.73;;;5.00;;
13250;SDS011;6692;50.710;7.180;2023-02-28T07:31:03;5.37;;;4.87;;
13250;SDS011;6692;50.710;7.180;2023-02-28T07:33:03;6.18;;;4.97;;
13250;SDS011;6692;50.710;7.180;2023-02-28T07:35:03;6.23;;;4.87;;
13250;SDS011;6692;50.710;7.180;2023-02-28T07:37:04;7.00;;;5.28;;
13250;SDS011;6692;50.710;7.180;2023-02-28T07:39:06;6.37;;;5.37;;
13250;SDS011;6692;50.710;7.180;2023-02-28T07:41:07;9.80;;;6.95;;
13250;SDS011;6692;50.710;7.180;2023-02-28T07:43:08;9.88;;;6.12;;
13250;SDS011;6692;50.710;7.180;2023-02-28T07:45:09;9.17;;;6.40;;
13250;SDS011;6692;50.710;7.180;2023-02-28T07:47:10;6.90;;;5.65;;
13250;SDS011;6692;50.710;7.180;2023-02-28T07:49:10;7.93;;;6.13;;
13250;SDS011;6692;50.710;7.180;2023-02-28T07:51:11;7.97;;;5.63;;
13250;SDS011;6692;50.710;7.180;2023-02-28T07:53:12;7.40;;;5.60;;
13250;SDS011;6692;50.710;7.180;2023-02-28T07:55:13;9.18;;;6.25;;
13250;SDS011;6692;50.710;7.180;2023-02-28T07:57:14;7.67;;;5.43;;
13250;SDS011;6692;50.710;7.180;2023-02-28T07:59:15;7.95;;;6.00;;
13250;SDS011;6692;50.710;7.180;2023-02-28T08:01:16;7.27;;;5.77;;
13250;SDS011;6692;50.710;7.180;2023-02-28T08:03:17;7.75;;;5.65;;
13250;SDS011;6692;50.710;7.180;2023-02-28T08:05:18;7.00;;;5.77;;
13250;SDS011;6692;50.710;7.180;2023-02-28T08:07:19;6.77;;;5.83;;
13250;SDS011;6692;50.710;7.180;2023-02-28T08:09:20;7.65;;;6.18;;
13250;SDS011;6692;50.710;7.180;2023-02-28T08:11:20;7.60;;;5.97;;
13250;SDS011;6692;50.710;7.180;2023-02-28T08:13:21;6.13;;;5.63;;
13250;SDS011;6692;50.710;7.180;2023-02-28T08:15:22;6.80;;;6.10;;
13250;SDS011;6692;50.710;7.180;2023-02-28T08:17:22;7.40;;;6.70;;
13250;SDS011;6692;50.710;7.180;2023-02-28T08:19:24;6.00;;;5.27;;
13250;SDS011;6692;50.710;7.180;2023-02-28T08:21:24;7.00;;;6.28;;
13250;SDS011;6692;50.710;7.180;2023-02-28T08:23:26;6.53;;;5.83;;
13250;SDS011;6692;50.710;7.180;2023-02-28T08:25:27;6.57;;;5.85;;
13250;SDS011;6692;50.710;7.180;2023-02-28T08:27:28;8.57;;;6.43;;
13250;SDS011;6692;50.710;7.180;2023-02-28T08:29:29;6.20;;;5.60;;
13250;SDS011;6692;50.710;7.180;2023-02-28T08:31:31;6.03;;;5.43;;
13250;SDS011;6692;50.710;7.180;2023-02-28T08:33:31;7.37;;;6.05;;
13250;SDS011;6692;50.710;7.180;2023-02-28T08:35:32;6.37;;;5.77;;
13250;SDS011;6692;50.710;7.180;2023-02-28T08:37:33;5.73;;;5.23;;
13250;SDS011;6692;50.710;7.180;2023-02-28T08:39:35;6.10;;;5.25;;
13250;SDS011;6692;50.710;7.180;2023-02-28T08:41:35;5.73;;;4.80;;
13250;SDS011;6692;50.710;7.180;2023-02-28T08:43:36;5.37;;;4.87;;
13250;SDS011;6692;50.710;7.180;2023-02-28T08:45:36;5.40;;;4.90;;
13250;SDS011;6692;50.710;7.180;2023-02-28T08:47:37;5.60;;;5.10;;
13250;SDS011;6692;50.710;7.180;2023-02-28T08:49:37;6.03;;;5.43;;
13250;SDS011;6692;50.710;7.180;2023-02-28T08:51:38;6.57;;;5.03;;
13250;SDS011;6692;50.710;7.180;2023-02-28T08:53:40;5.73;;;5.13;;
13250;SDS011;6692;50.710;7.180;2023-02-28T08:55:40;6.43;;;5.70;;
13250;SDS011;6692;50.710;7.180;2023-02-28T08:57:41;5.53;;;4.90;;
13250;SDS011;6692;50.710;7.180;2023-02-28T08:59:43;5.45;;;4.87;;
13250;SDS011;6692;50.710;7.180;2023-02-28T09:01:44;5.90;;;5.30;;
13250;SDS011;6692;50.710;7.180;2023-02-28T09:03:46;5.18;;;4.68;;
13250;SDS011;6692;50.710;7.180;2023-02-28T09:05:52;6.40;;;5.20;;
13250;SDS011;6692;50.710;7.180;2023-02-28T09:07:52;5.40;;;4.80;;
13250;SDS011;6692;50.710;7.180;2023-02-28T09:09:53;6.27;;;4.93;;
13250;SDS011;6692;50.710;7.180;2023-02-28T09:11:55;10.07;;;6.18;;
13250;SDS011;6692;50.710;7.180;2023-02-28T09:13:56;9.55;;;7.07;;
13250;SDS011;6692;50.710;7.180;2023-02-28T09:15:58;6.63;;;5.60;;
13250;SDS011;6692;50.710;7.180;2023-02-28T09:17:58;7.07;;;5.60;;
13250;SDS011;6692;50.710;7.180;2023-02-28T09:19:58;7.10;;;5.53;;
13250;SDS011;6692;50.710;7.180;2023-02-28T09:21:59;5.77;;;4.90;;
13250;SDS011;6692;50.710;7.180;2023-02-28T09:24:00;6.63;;;5.20;;
13250;SDS011;6692;50.710;7.180;2023-02-28T09:26:01;5.22;;;4.72;;
13250;SDS011;6692;50.710;7.180;2023-02-28T09:28:02;5.17;;;4.67;;
13250;SDS011;6692;50.710;7.180;2023-02-28T09:30:03;5.10;;;4.60;;
13250;SDS011;6692;50.710;7.180;2023-02-28T09:32:04;5.10;;;4.60;;
13250;SDS011;6692;50.710;7.180;2023-02-28T09:34:05;5.50;;;4.90;;
13250;SDS011;6692;50.710;7.180;2023-02-28T09:36:07;4.78;;;4.28;;
13250;SDS011;6692;50.710;7.180;2023-02-28T09:38:07;4.72;;;4.32;;
13250;SDS011;6692;50.710;7.180;2023-02-28T09:40:09;4.97;;;4.47;;
13250;SDS011;6692;50.710;7.180;2023-02-28T09:42:13;5.30;;;4.78;;
13250;SDS011;6692;50.710;7.180;2023-02-28T09:44:13;5.12;;;4.72;;
13250;SDS011;6692;50.710;7.180;2023-02-28T09:46:24;5.50;;;4.62;;
13250;SDS011;6692;50.710;7.180;2023-02-28T09:48:21;5.00;;;4.60;;
13250;SDS011;6692;50.710;7.180;2023-02-28T09:50:30;5.20;;;4.73;;
13250;SDS011;6692;50.710;7.180;2023-02-28T09:52:41;5.32;;;4.72;;
13250;SDS011;6692;50.710;7.180;2023-02-28T09:54:42;5.15;;;4.65;;
13250;SDS011;6692;50.710;7.180;2023-02-28T09:56:43;5.20;;;4.70;;
13250;SDS011;6692;50.710;7.180;2023-02-28T09:58:47;5.00;;;4.47;;
13250;SDS011;6692;50.710;7.180;2023-02-28T10:00:54;5.18;;;4.78;;
13250;SDS011;6692;50.710;7.180;2023-02-28T10:05:23;5.50;;;5.00;;
13250;SDS011;6692;50.710;7.180;2023-02-28T10:07:36;5.28;;;4.57;;
13250;SDS011;6692;50.710;7.180;2023-02-28T10:09:36;6.35;;;5.75;;
13250;SDS011;6692;50.710;7.180;2023-02-28T10:11:38;5.67;;;4.83;;
13250;SDS011;6692;50.710;7.180;2023-02-28T10:13:46;5.57;;;5.07;;
13250;SDS011;6692;50.710;7.180;2023-02-28T10:16:02;9.50;;;5.15;;
13250;SDS011;6692;50.710;7.180;2023-02-28T10:18:03;5.27;;;4.77;;
13250;SDS011;6692;50.710;7.180;2023-02-28T10:20:07;6.30;;;4.12;;
13250;SDS011;6692;50.710;7.180;2023-02-28T10:22:12;6.32;;;4.97;;
13250;SDS011;6692;50.710;7.180;2023-02-28T10:26:36;4.90;;;4.50;;
13250;SDS011;6692;50.710;7.180;2023-02-28T10:28:37;5.33;;;4.83;;
13250;SDS011;6692;50.710;7.180;2023-02-28T10:30:39;5.67;;;4.47;;
13250;SDS011;6692;50.710;7.180;2023-02-28T10:32:38;5.37;;;4.87;;
13250;SDS011;6692;50.710;7.180;2023-02-28T10:34:40;4.85;;;4.45;;
13250;SDS011;6692;50.710;7.180;2023-02-28T10:36:41;4.97;;;4.50;;
13250;SDS011;6692;50.710;7.180;2023-02-28T10:38:41;5.80;;;5.30;;
13250;SDS011;6692;50.710;7.180;2023-02-28T10:40:42;5.27;;;4.67;;
13250;SDS011;6692;50.710;7.180;2023-02-28T10:42:54;5.30;;;4.80;;
13250;SDS011;6692;50.710;7.180;2023-02-28T10:44:50;5.10;;;4.60;;
13250;SDS011;6692;50.710;7.180;2023-02-28T10:46:50;5.80;;;5.30;;
13250;SDS011;6692;50.710;7.180;2023-02-28T10:51:02;5.62;;;4.90;;
13250;SDS011;6692;50.710;7.180;2023-02-28T10:55:29;6.90;;;4.68;;
13250;SDS011;6692;50.710;7.180;2023-02-28T10:57:30;4.37;;;3.97;;
13250;SDS011;6692;50.710;7.180;2023-02-28T10:59:30;4.73;;;4.13;;
13250;SDS011;6692;50.710;7.180;2023-02-28T11:01:37;4.70;;;4.30;;
13250;SDS011;6692;50.710;7.180;2023-02-28T11:03:36;4.60;;;4.10;;
13250;SDS011;6692;50.710;7.180;2023-02-28T11:05:37;4.73;;;4.33;;
13250;SDS011;6692;50.710;7.180;2023-02-28T11:07:38;4.10;;;3.80;;
13250;SDS011;6692;50.710;7.180;2023-02-28T11:09:40;4.30;;;3.90;;
13250;SDS011;6692;50.710;7.180;2023-02-28T11:11:42;4.43;;;4.03;;
13250;SDS011;6692;50.710;7.180;2023-02-28T11:13:41;4.80;;;4.20;;
13250;SDS011;6692;50.710;7.180;2023-02-28T11:15:42;4.77;;;4.30;;
13250;SDS011;6692;50.710;7.180;2023-02-28T11:17:42;5.20;;;4.47;;
13250;SDS011;6692;50.710;7.180;2023-02-28T11:19:45;4.90;;;4.40;;
13250;SDS011;6692;50.710;7.180;2023-02-28T11:21:48;4.85;;;4.35;;
13250;SDS011;6692;50.710;7.180;2023-02-28T11:23:46;5.03;;;4.07;;
13250;SDS011;6692;50.710;7.180;2023-02-28T11:25:48;4.93;;;4.43;;
13250;SDS011;6692;50.710;7.180;2023-02-28T11:27:49;5.15;;;4.57;;
13250;SDS011;6692;50.710;7.180;2023-02-28T11:29:49;5.07;;;4.67;;
13250;SDS011;6692;50.710;7.180;2023-02-28T11:34:07;4.47;;;4.07;;
13250;SDS011;6692;50.710;7.180;2023-02-28T11:36:08;4.80;;;4.30;;
13250;SDS011;6692;50.710;7.180;2023-02-28T11:38:07;5.20;;;4.60;;
13250;SDS011;6692;50.710;7.180;2023-02-28T11:40:09;4.67;;;4.27;;
13250;SDS011;6692;50.710;7.180;2023-02-28T11:42:29;4.95;;;4.37;;
13250;SDS011;6692;50.710;7.180;2023-02-28T11:44:30;4.80;;;4.30;;
13250;SDS011;6692;50.710;7.180;2023-02-28T11:46:32;4.87;;;4.22;;
13250;SDS011;6692;50.710;7.180;2023-02-28T11:48:53;4.87;;;4.43;;
13250;SDS011;6692;50.710;7.180;2023-02-28T11:50:54;4.37;;;3.97;;
13250;SDS011;6692;50.710;7.180;2023-02-28T11:52:56;6.50;;;4.82;;
13250;SDS011;6692;50.710;7.180;2023-02-28T11:56:05;5.07;;;4.50;;
13250;SDS011;6692;50.710;7.180;2023-02-28T11:57:26;5.00;;;4.60;;
13250;SDS011;6692;50.710;7.180;2023-02-28T12:01:53;5.43;;;4.80;;
13250;SDS011;6692;50.710;7.180;2023-02-28T12:03:58;5.15;;;4.65;;
13250;SDS011;6692;50.710;7.180;2023-02-28T12:06:08;5.30;;;4.80;;
13250;SDS011;6692;50.710;7.180;2023-02-28T12:08:20;5.45;;;4.75;;
13250;SDS011;6692;50.710;7.180;2023-02-28T12:10:27;5.20;;;4.80;;
13250;SDS011;6692;50.710;7.180;2023-02-28T12:12:34;5.93;;;4.53;;
13250;SDS011;6692;50.710;7.180;2023-02-28T12:14:49;5.53;;;5.03;;
13250;SDS011;6692;50.710;7.180;2023-02-28T12:17:01;4.70;;;4.30;;
13250;SDS011;6692;50.710;7.180;2023-02-28T12:19:09;6.15;;;5.12;;
13250;SDS011;6692;50.710;7.180;2023-02-28T12:21:14;5.97;;;5.40;;
13250;SDS011;6692;50.710;7.180;2023-02-28T12:23:29;5.35;;;4.85;;
13250;SDS011;6692;50.710;7.180;2023-02-28T12:25:37;5.28;;;4.78;;
13250;SDS011;6692;50.710;7.180;2023-02-28T12:27:37;6.07;;;5.47;;
13250;SDS011;6692;50.710;7.180;2023-02-28T12:29:44;5.57;;;4.87;;
13250;SDS011;6692;50.710;7.180;2023-02-28T12:31:45;5.20;;;4.70;;
13250;SDS011;6692;50.710;7.180;2023-02-28T12:33:50;5.00;;;4.60;;
13250;SDS011;6692;50.710;7.180;2023-02-28T12:35:49;5.37;;;4.87;;
13250;SDS011;6692;50.710;7.180;2023-02-28T12:37:56;5.72;;;5.15;;
13250;SDS011;6692;50.710;7.180;2023-02-28T12:40:00;5.18;;;4.60;;
13250;SDS011;6692;50.710;7.180;2023-02-28T12:41:59;5.78;;;4.70;;
13250;SDS011;6692;50.710;7.180;2023-02-28T12:44:02;5.85;;;4.75;;
13250;SDS011;6692;50.710;7.180;2023-02-28T12:46:03;5.12;;;4.62;;
13250;SDS011;6692;50.710;7.180;2023-02-28T12:48:04;4.90;;;4.50;;
13250;SDS011;6692;50.710;7.180;2023-02-28T12:50:05;4.57;;;4.17;;